Airfield :
LOGIN :

Register | Disclaimer

   EN    FR    IT 

 










Legend :    VFR   Marginal VFR   IFR   Intensive IFR   Very Intensive IFR
Visi :
Ceiling :
>= 8 km
>= 3000ft
5 to 8 km
1000 to 3000 ft
1500m to 5 km
500 to 1000 ft
800 to 1500m
200 to 500 ft
< 800m
< 200 ft
Symbols :   Thunderstorms  Fog  Heavy snow  Heavy precipitations  Wind > 20 kt
SIGMETs :     Misc.  Thunderstorms  Icing  Turbulence  Mountain Waves  Volcanic Ashes






- Airport Elevation : 126 ft
- IATA code : WIC


EGPC - Wick

CURRENT METAR :
  • 071520Z 24010KT 9999 VCSH FEW010 10/05 Q1002

EXPIRED METARs :
  • 071450Z 25013KT 9999 VCSH FEW032 11/05 Q1002
  • 071420Z 25012KT 9999 VCSH FEW032 10/05 Q1002
  • 071350Z 26013KT 9999 VCSH FEW008 SCT030 11/06 Q1002
  • 071320Z 27013KT 9999 -SHRA FEW008 SCT030 10/05 Q1002
  • 071250Z 28019G30KT 9999 BKN037 12/05 Q1001

TAF TAF EGPC
Valid from the 07 at 15:00 until the 08 at 00:00 UTC


071356Z 0715/0724 26012KT 9999 FEW020 SCT040
PROB30
TEMPO 0715/0724 27015G25KT 7000 SHRA
ATIS : +44 1955 607 596



MET'MAP, your aeronautical weather chart ! - Copyright ORBIFLY December 2007 - Disclaimer

ORBIFLY MET'MAP TEAM :

Programming & Development : Alexandra Zaïnal
Original concept : Baudouin d'Aumeries
Technical & hardware support : Manuel Goepfert
Assistance : Marc-Olivier Méhu




SOURCES & CREDITS :

   NOAA